Time;durP1;ratioP1;P1;durP2;ratioP2;P2;SDS_P1;SDS_P2;PMS_P1;PMS_P2;Temp;Humidity;BMP_temperature;BMP_pressure;BME280_temperature;BME280_humidity;BME280_pressure;Samples;Min_cycle;Max_cycle;Signal;HPM_P1;HPM_P2
2021/03/19 00:02:13;;;;;;;0.20;0.20;;;;;;;;;;5058225;28;20206;-74
2021/03/19 00:04:40;;;;;;;0.20;0.20;;;;;;;;;;5066226;28;20230;-74
2021/03/19 00:07:06;;;;;;;0.20;0.20;;;;;;;;;;5074170;28;20207;-74
2021/03/19 00:09:32;;;;;;;0.20;0.20;;;;;;;;;;5064102;28;20203;-73
2021/03/19 00:12:00;;;;;;;0.20;0.20;;;;;;;;;;5055211;28;20553;-73
2021/03/19 00:14:26;;;;;;;0.20;0.20;;;;;;;;;;5064801;28;20235;-71
2021/03/19 00:16:52;;;;;;;0.20;0.20;;;;;;;;;;5082842;28;20198;-73
2021/03/19 00:19:19;;;;;;;0.20;0.20;;;;;;;;;;5081726;28;20207;-73
2021/03/19 00:21:45;;;;;;;0.20;0.20;;;;;;;;;;5079545;28;20215;-72
2021/03/19 00:24:12;;;;;;;0.20;0.20;;;;;;;;;;5059295;28;20203;-74
2021/03/19 00:26:38;;;;;;;0.20;0.20;;;;;;;;;;5061138;28;20223;-74
2021/03/19 00:29:05;;;;;;;0.20;0.20;;;;;;;;;;5065654;28;20426;-74
2021/03/19 00:31:31;;;;;;;0.20;0.20;;;;;;;;;;5083167;28;20203;-73
2021/03/19 00:33:58;;;;;;;0.20;0.20;;;;;;;;;;5065467;28;20219;-72
2021/03/19 00:36:24;;;;;;;0.20;0.20;;;;;;;;;;5066255;28;20497;-73
2021/03/19 00:38:50;;;;;;;0.20;0.20;;;;;;;;;;5049937;28;20278;-73
2021/03/19 00:41:18;;;;;;;0.20;0.20;;;;;;;;;;5062686;28;20285;-74
2021/03/19 00:43:44;;;;;;;0.20;0.20;;;;;;;;;;5065645;28;20374;-73
2021/03/19 00:46:11;;;;;;;0.20;0.20;;;;;;;;;;5072750;28;20270;-74
2021/03/19 00:48:38;;;;;;;0.20;0.20;;;;;;;;;;5062234;28;20218;-72
2021/03/19 00:51:04;;;;;;;0.20;0.20;;;;;;;;;;5091954;28;20195;-72
2021/03/19 00:53:30;;;;;;;4.33;3.90;;;;;;;;;;5071283;28;20219;-73
2021/03/19 00:55:56;;;;;;;0.20;0.20;;;;;;;;;;5058902;28;20360;-74
2021/03/19 00:58:23;;;;;;;0.20;0.20;;;;;;;;;;5083344;28;20564;-73
2021/03/19 01:00:50;;;;;;;0.20;0.20;;;;;;;;;;5064222;28;20240;-70
2021/03/19 01:03:17;;;;;;;0.20;0.20;;;;;;;;;;5065677;28;20196;-73
2021/03/19 01:05:44;;;;;;;0.20;0.20;;;;;;;;;;5081040;28;20333;-73
2021/03/19 01:08:11;;;;;;;0.20;0.20;;;;;;;;;;5056645;28;20196;-74
2021/03/19 01:10:39;;;;;;;0.20;0.20;;;;;;;;;;5064149;28;20203;-72
2021/03/19 01:13:06;;;;;;;0.20;0.20;;;;;;;;;;5070713;28;20278;-73
2021/03/19 01:15:33;;;;;;;0.20;0.20;;;;;;;;;;5051424;28;20219;-73
2021/03/19 01:17:59;;;;;;;0.20;0.20;;;;;;;;;;5081374;28;20282;-73
2021/03/19 01:20:27;;;;;;;0.20;0.20;;;;;;;;;;5059040;28;20206;-74
2021/03/19 01:22:53;;;;;;;0.20;0.20;;;;;;;;;;5077132;28;20287;-73
2021/03/19 01:25:20;;;;;;;0.20;0.20;;;;;;;;;;5061447;28;20207;-73
2021/03/19 01:27:46;;;;;;;0.20;0.20;;;;;;;;;;5081791;28;20205;-73
2021/03/19 01:30:14;;;;;;;0.20;0.20;;;;;;;;;;5057320;28;20200;-72
2021/03/19 01:32:41;;;;;;;0.20;0.20;;;;;;;;;;5055440;28;20212;-73
2021/03/19 01:35:07;;;;;;;0.20;0.20;;;;;;;;;;5050090;28;20211;-71
2021/03/19 01:37:34;;;;;;;0.20;0.20;;;;;;;;;;5064963;28;20206;-74
2021/03/19 01:40:01;;;;;;;0.20;0.20;;;;;;;;;;5063022;28;20203;-73
2021/03/19 01:42:27;;;;;;;0.20;0.20;;;;;;;;;;5054888;28;20360;-73
2021/03/19 01:45:11;;;;;;;0.20;0.20;;;;;;;;;;5080656;28;20211;-73
2021/03/19 01:47:56;;;;;;;0.20;0.20;;;;;;;;;;5060997;28;20207;-73
2021/03/19 01:50:41;;;;;;;0.20;0.20;;;;;;;;;;5076071;28;20207;-73
2021/03/19 01:53:25;;;;;;;0.20;0.20;;;;;;;;;;5066236;28;20219;-73
2021/03/19 01:56:10;;;;;;;0.20;0.20;;;;;;;;;;5083134;28;20386;-73
2021/03/19 01:58:55;;;;;;;0.20;0.20;;;;;;;;;;5081935;28;20400;-73
2021/03/19 02:01:40;;;;;;;0.20;0.20;;;;;;;;;;5067627;28;20236;-74
2021/03/19 02:04:24;;;;;;;0.20;0.20;;;;;;;;;;5080856;28;20277;-73
2021/03/19 02:07:09;;;;;;;0.20;0.20;;;;;;;;;;5064925;28;20403;-73
2021/03/19 02:09:54;;;;;;;0.20;0.20;;;;;;;;;;5082267;28;20203;-73
2021/03/19 02:12:39;;;;;;;0.20;0.20;;;;;;;;;;5085007;28;20237;-73
2021/03/19 02:15:24;;;;;;;0.20;0.20;;;;;;;;;;5081318;28;20236;-73
2021/03/19 02:18:23;;;;;;;0.20;0.20;;;;;;;;;;5081721;28;20209;-71
2021/03/19 02:21:08;;;;;;;0.20;0.20;;;;;;;;;;5038553;28;20204;-72
2021/03/19 02:23:52;;;;;;;0.20;0.20;;;;;;;;;;5059276;28;20192;-72
2021/03/19 02:26:37;;;;;;;0.20;0.20;;;;;;;;;;5065921;28;20206;-72
2021/03/19 02:29:22;;;;;;;0.20;0.20;;;;;;;;;;5077829;28;20486;-73
2021/03/19 02:31:58;;;;;;;0.20;0.20;;;;;;;;;;5069212;28;20195;-72
2021/03/19 02:34:25;;;;;;;0.20;0.20;;;;;;;;;;5082973;28;20580;-73
2021/03/19 02:36:52;;;;;;;0.20;0.20;;;;;;;;;;5063538;28;20197;-73
2021/03/19 02:39:18;;;;;;;0.20;0.20;;;;;;;;;;5079775;28;20199;-72
2021/03/19 02:41:44;;;;;;;0.20;0.20;;;;;;;;;;5057820;28;20494;-72
2021/03/19 02:44:11;;;;;;;0.20;0.20;;;;;;;;;;5064099;28;20202;-72
2021/03/19 02:46:37;;;;;;;0.20;0.20;;;;;;;;;;5056504;28;20195;-72
2021/03/19 02:49:04;;;;;;;0.20;0.20;;;;;;;;;;5071368;28;20214;-74
2021/03/19 02:51:30;;;;;;;0.20;0.20;;;;;;;;;;5060598;28;20270;-73
2021/03/19 02:53:57;;;;;;;0.20;0.20;;;;;;;;;;5079754;28;20222;-73
2021/03/19 02:56:23;;;;;;;0.20;0.20;;;;;;;;;;5073828;28;20533;-73
2021/03/19 02:58:49;;;;;;;0.20;0.20;;;;;;;;;;5075936;28;20203;-73
2021/03/19 03:01:15;;;;;;;0.20;0.20;;;;;;;;;;5062879;28;20494;-72
2021/03/19 03:03:42;;;;;;;0.20;0.20;;;;;;;;;;5069356;28;20218;-72
2021/03/19 03:06:09;;;;;;;0.27;0.27;;;;;;;;;;5059842;28;20211;-73
2021/03/19 03:08:35;;;;;;;0.20;0.20;;;;;;;;;;5051520;28;20204;-73
2021/03/19 03:11:01;;;;;;;0.20;0.20;;;;;;;;;;5052251;28;20199;-73
2021/03/19 03:13:28;;;;;;;0.30;0.30;;;;;;;;;;5079877;28;20220;-73
2021/03/19 03:15:54;;;;;;;0.20;0.20;;;;;;;;;;5079217;28;20202;-72
2021/03/19 03:18:20;;;;;;;0.20;0.20;;;;;;;;;;5057204;28;20433;-72
2021/03/19 03:20:48;;;;;;;0.20;0.20;;;;;;;;;;5074561;28;20275;-73
2021/03/19 03:23:15;;;;;;;0.27;0.27;;;;;;;;;;5081650;28;20286;-73
2021/03/19 03:25:41;;;;;;;0.20;0.20;;;;;;;;;;5081125;28;20417;-73
2021/03/19 03:28:08;;;;;;;0.20;0.20;;;;;;;;;;5061777;28;20514;-73
2021/03/19 03:30:36;;;;;;;0.20;0.20;;;;;;;;;;5078714;28;20203;-73
2021/03/19 03:33:03;;;;;;;0.20;0.20;;;;;;;;;;5074668;28;20211;-73
2021/03/19 03:35:29;;;;;;;0.20;0.20;;;;;;;;;;5080635;28;20525;-73
2021/03/19 03:37:56;;;;;;;0.20;0.20;;;;;;;;;;5075536;28;20199;-73
2021/03/19 03:40:24;;;;;;;0.20;0.20;;;;;;;;;;5084063;28;20210;-73
2021/03/19 03:42:51;;;;;;;0.20;0.20;;;;;;;;;;5080221;28;20222;-73
2021/03/19 03:45:17;;;;;;;0.20;0.20;;;;;;;;;;5067046;28;20203;-74
2021/03/19 03:47:43;;;;;;;0.20;0.20;;;;;;;;;;5083524;28;20203;-73
2021/03/19 03:50:11;;;;;;;0.20;0.20;;;;;;;;;;5077926;28;20286;-73
2021/03/19 03:52:37;;;;;;;0.20;0.20;;;;;;;;;;5083186;28;20215;-73
2021/03/19 03:55:03;;;;;;;0.20;0.20;;;;;;;;;;5079464;28;20199;-73
2021/03/19 03:57:31;;;;;;;0.20;0.20;;;;;;;;;;5064738;28;20196;-73
2021/03/19 03:59:57;;;;;;;0.20;0.20;;;;;;;;;;5065580;28;20209;-73
2021/03/19 04:02:25;;;;;;;0.27;0.27;;;;;;;;;;5066038;28;20544;-73
2021/03/19 04:04:52;;;;;;;0.20;0.20;;;;;;;;;;5082759;28;20219;-73
2021/03/19 04:07:18;;;;;;;1.13;1.13;;;;;;;;;;5064432;28;20200;-72
2021/03/19 04:09:44;;;;;;;0.20;0.20;;;;;;;;;;5053398;28;20483;-73
2021/03/19 04:12:11;;;;;;;0.20;0.20;;;;;;;;;;5082100;28;20210;-73
2021/03/19 04:14:39;;;;;;;0.20;0.20;;;;;;;;;;5077886;28;20262;-73
2021/03/19 04:17:07;;;;;;;0.20;0.20;;;;;;;;;;5047398;28;20499;-73
2021/03/19 04:19:33;;;;;;;0.20;0.20;;;;;;;;;;5065073;28;20378;-74
2021/03/19 04:22:00;;;;;;;0.20;0.20;;;;;;;;;;5055884;28;20192;-73
2021/03/19 04:24:26;;;;;;;0.20;0.20;;;;;;;;;;5065156;28;20199;-74
2021/03/19 04:26:52;;;;;;;0.20;0.20;;;;;;;;;;5064638;28;20200;-73
2021/03/19 04:29:19;;;;;;;0.20;0.20;;;;;;;;;;5071007;28;20230;-75
2021/03/19 04:31:46;;;;;;;0.20;0.20;;;;;;;;;;5061480;28;20518;-74
2021/03/19 04:34:12;;;;;;;0.20;0.20;;;;;;;;;;5084714;28;20526;-72
2021/03/19 04:36:42;;;;;;;0.20;0.20;;;;;;;;;;5064182;28;20268;-72
2021/03/19 04:39:10;;;;;;;0.20;0.20;;;;;;;;;;5085520;28;20203;-74
2021/03/19 04:41:37;;;;;;;0.20;0.20;;;;;;;;;;5066549;28;20237;-74
2021/03/19 04:44:04;;;;;;;0.20;0.20;;;;;;;;;;5075808;28;20203;-72
2021/03/19 04:46:30;;;;;;;0.20;0.20;;;;;;;;;;5049528;28;20207;-73
2021/03/19 04:48:57;;;;;;;0.20;0.20;;;;;;;;;;5078362;28;20420;-72
2021/03/19 04:51:23;;;;;;;0.20;0.20;;;;;;;;;;5062337;28;20486;-74
2021/03/19 04:53:50;;;;;;;0.20;0.20;;;;;;;;;;5062336;28;20215;-74
2021/03/19 04:56:16;;;;;;;0.20;0.20;;;;;;;;;;5060415;28;20248;-72
2021/03/19 04:58:42;;;;;;;0.30;0.30;;;;;;;;;;5085407;28;20211;-72
2021/03/19 05:01:08;;;;;;;0.20;0.20;;;;;;;;;;5048552;28;20200;-72
2021/03/19 05:03:34;;;;;;;0.27;0.27;;;;;;;;;;5073339;28;20233;-71
2021/03/19 05:06:01;;;;;;;0.20;0.20;;;;;;;;;;5059634;28;20204;-72
2021/03/19 05:08:28;;;;;;;0.20;0.20;;;;;;;;;;5051116;28;20402;-72
2021/03/19 05:10:54;;;;;;;0.20;0.20;;;;;;;;;;5054536;28;20443;-72
2021/03/19 05:13:20;;;;;;;0.20;0.20;;;;;;;;;;5074412;28;20223;-72
2021/03/19 05:15:46;;;;;;;0.20;0.20;;;;;;;;;;5069683;28;20206;-72
2021/03/19 05:18:12;;;;;;;0.27;0.27;;;;;;;;;;5083180;28;20203;-72
2021/03/19 05:20:38;;;;;;;0.20;0.20;;;;;;;;;;5053205;28;20199;-73
2021/03/19 05:23:16;;;;;;;0.30;0.30;;;;;;;;;;5081425;28;20262;-72
2021/03/19 05:25:43;;;;;;;0.20;0.20;;;;;;;;;;5077376;28;20202;-73
2021/03/19 05:28:09;;;;;;;0.20;0.20;;;;;;;;;;5054746;28;20204;-72
2021/03/19 05:30:35;;;;;;;0.20;0.20;;;;;;;;;;5071463;28;20203;-74
2021/03/19 05:33:02;;;;;;;1.07;1.07;;;;;;;;;;5068148;28;20285;-73
2021/03/19 05:35:28;;;;;;;0.20;0.20;;;;;;;;;;5082126;28;20203;-74
2021/03/19 05:37:56;;;;;;;0.27;0.27;;;;;;;;;;5080864;28;20192;-72
2021/03/19 05:40:28;;;;;;;0.30;0.30;;;;;;;;;;5053007;28;20536;-70
2021/03/19 05:42:54;;;;;;;0.20;0.20;;;;;;;;;;5068797;28;20326;-73
2021/03/19 05:45:23;;;;;;;0.20;0.20;;;;;;;;;;5052410;28;20203;-73
2021/03/19 05:47:50;;;;;;;0.20;0.20;;;;;;;;;;5080304;28;20199;-72
2021/03/19 05:50:23;;;;;;;0.20;0.20;;;;;;;;;;5074767;28;20226;-71
2021/03/19 05:52:49;;;;;;;0.37;0.37;;;;;;;;;;5080710;28;20195;-73
2021/03/19 05:55:17;;;;;;;0.20;0.20;;;;;;;;;;5062292;28;20551;-73
2021/03/19 05:57:45;;;;;;;0.20;0.20;;;;;;;;;;5077575;28;20523;-73
2021/03/19 06:00:16;;;;;;;0.20;0.20;;;;;;;;;;5064085;28;20218;-72
2021/03/19 06:02:42;;;;;;;0.30;0.30;;;;;;;;;;5081185;28;20195;-73
2021/03/19 06:05:10;;;;;;;0.20;0.20;;;;;;;;;;5058857;28;20220;-74
2021/03/19 06:07:38;;;;;;;0.20;0.20;;;;;;;;;;5078384;28;20269;-74
2021/03/19 06:10:19;;;;;;;0.20;0.20;;;;;;;;;;5062336;28;20200;-73
2021/03/19 06:12:47;;;;;;;0.20;0.20;;;;;;;;;;5060565;28;20200;-73
2021/03/19 06:15:23;;;;;;;0.20;0.20;;;;;;;;;;5046636;28;20249;-73
2021/03/19 06:17:49;;;;;;;0.20;0.20;;;;;;;;;;5081007;28;20513;-71
2021/03/19 06:20:17;;;;;;;0.30;0.30;;;;;;;;;;5097794;28;20199;-74
2021/03/19 06:22:46;;;;;;;0.20;0.20;;;;;;;;;;5081571;28;20200;-72
2021/03/19 06:25:15;;;;;;;0.30;0.30;;;;;;;;;;5080110;28;20294;-72
2021/03/19 06:27:48;;;;;;;0.20;0.20;;;;;;;;;;5072269;28;20222;-72
2021/03/19 06:30:20;;;;;;;0.20;0.20;;;;;;;;;;5079383;28;20215;-73
2021/03/19 06:32:59;;;;;;;0.20;0.20;;;;;;;;;;5071647;28;20230;-71
2021/03/19 06:35:31;;;;;;;0.20;0.20;;;;;;;;;;5072926;28;20206;-72
2021/03/19 06:38:17;;;;;;;0.20;0.20;;;;;;;;;;5078582;28;20202;-72
2021/03/19 06:40:43;;;;;;;0.20;0.20;;;;;;;;;;5074517;28;20507;-72
2021/03/19 06:43:16;;;;;;;0.20;0.20;;;;;;;;;;5075849;28;20428;-74
2021/03/19 06:45:42;;;;;;;0.30;0.30;;;;;;;;;;5075862;28;20216;-72
2021/03/19 06:48:23;;;;;;;0.20;0.20;;;;;;;;;;5074321;28;20198;-72
2021/03/19 06:50:50;;;;;;;0.20;0.20;;;;;;;;;;5079896;28;20206;-74
2021/03/19 06:53:17;;;;;;;0.20;0.20;;;;;;;;;;5058196;28;20219;-72
2021/03/19 06:55:45;;;;;;;0.20;0.20;;;;;;;;;;5078379;28;20279;-72
2021/03/19 06:58:11;;;;;;;0.20;0.20;;;;;;;;;;5058954;28;20204;-73
2021/03/19 07:00:40;;;;;;;0.20;0.20;;;;;;;;;;5071307;28;20368;-73
2021/03/19 07:03:32;;;;;;;0.20;0.20;;;;;;;;;;5070708;28;20512;-73
2021/03/19 07:06:26;;;;;;;0.23;0.23;;;;;;;;;;5075091;28;20253;-72
2021/03/19 07:08:55;;;;;;;0.20;0.20;;;;;;;;;;5094522;28;20215;-71
2021/03/19 07:11:40;;;;;;;0.20;0.20;;;;;;;;;;5074589;28;20208;-66
2021/03/19 07:14:15;;;;;;;0.20;0.20;;;;;;;;;;5075889;28;20219;-65
2021/03/19 07:16:47;;;;;;;0.20;0.20;;;;;;;;;;5073744;28;20199;-66
2021/03/19 07:19:16;;;;;;;0.20;0.20;;;;;;;;;;5072542;28;20207;-66
2021/03/19 07:21:53;;;;;;;0.20;0.20;;;;;;;;;;5061107;28;20211;-73
2021/03/19 07:24:25;;;;;;;0.20;0.20;;;;;;;;;;5072930;28;20202;-75
2021/03/19 07:26:54;;;;;;;0.20;0.20;;;;;;;;;;5080764;28;20250;-73
2021/03/19 07:29:31;;;;;;;0.20;0.20;;;;;;;;;;5074139;28;20199;-74
2021/03/19 07:32:15;;;;;;;0.20;0.20;;;;;;;;;;5079866;28;20242;-74
2021/03/19 07:34:48;;;;;;;0.20;0.20;;;;;;;;;;5072876;28;20223;-73
2021/03/19 07:37:18;;;;;;;0.20;0.20;;;;;;;;;;5083470;28;20242;-75
2021/03/19 07:39:52;;;;;;;0.20;0.20;;;;;;;;;;5081838;28;20195;-73
2021/03/19 07:42:34;;;;;;;0.20;0.20;;;;;;;;;;5079066;28;20507;-73
2021/03/19 07:45:02;;;;;;;0.87;0.87;;;;;;;;;;5074337;28;20275;-72
2021/03/19 07:47:46;;;;;;;0.20;0.20;;;;;;;;;;5081928;28;20222;-73
2021/03/19 07:50:18;;;;;;;0.20;0.20;;;;;;;;;;5076722;28;20394;-72
2021/03/19 07:53:06;;;;;;;0.20;0.20;;;;;;;;;;5077545;28;20202;-73
2021/03/19 07:55:34;;;;;;;0.20;0.20;;;;;;;;;;5079191;28;20274;-74
2021/03/19 07:58:02;;;;;;;0.20;0.20;;;;;;;;;;5083578;28;20202;-71
2021/03/19 08:00:30;;;;;;;4.70;4.43;;;;;;;;;;5073412;28;20334;-72
2021/03/19 08:03:03;;;;;;;0.20;0.20;;;;;;;;;;5082624;28;20207;-66
2021/03/19 08:05:33;;;;;;;0.20;0.20;;;;;;;;;;5079154;28;20227;-65
2021/03/19 08:08:02;;;;;;;0.20;0.20;;;;;;;;;;5074811;28;20203;-69
2021/03/19 08:10:30;;;;;;;0.10;0.10;;;;;;;;;;5095654;28;20207;-70
2021/03/19 08:12:59;;;;;;;0.13;0.13;;;;;;;;;;5081131;28;20237;-70
2021/03/19 08:15:31;;;;;;;0.17;0.17;;;;;;;;;;5083860;28;20208;-69
2021/03/19 08:18:00;;;;;;;0.30;0.30;;;;;;;;;;5087968;28;20197;-70
2021/03/19 08:20:31;;;;;;;0.20;0.20;;;;;;;;;;5083065;28;20229;-69
2021/03/19 08:23:00;;;;;;;0.50;0.50;;;;;;;;;;5084247;28;20482;-69
2021/03/19 08:25:28;;;;;;;0.20;0.20;;;;;;;;;;5080966;28;20228;-71
2021/03/19 08:27:58;;;;;;;0.40;0.40;;;;;;;;;;5082163;28;20199;-70
2021/03/19 08:30:28;;;;;;;0.20;0.20;;;;;;;;;;5084021;28;20421;-71
2021/03/19 08:32:59;;;;;;;0.20;0.20;;;;;;;;;;5084173;28;20202;-72
2021/03/19 08:35:28;;;;;;;0.17;0.17;;;;;;;;;;5087515;28;20456;-72
2021/03/19 08:37:59;;;;;;;0.10;0.10;;;;;;;;;;5083124;28;20196;-71
2021/03/19 08:40:31;;;;;;;0.20;0.20;;;;;;;;;;5076395;28;20195;-71
2021/03/19 08:42:58;;;;;;;0.20;0.20;;;;;;;;;;5084695;28;20539;-71
2021/03/19 08:45:26;;;;;;;0.20;0.20;;;;;;;;;;5062235;28;20224;-70
2021/03/19 08:47:53;;;;;;;0.20;0.20;;;;;;;;;;5087467;28;20234;-70
2021/03/19 08:50:28;;;;;;;0.20;0.20;;;;;;;;;;5079833;28;20208;-71
2021/03/19 08:53:15;;;;;;;0.20;0.20;;;;;;;;;;5076231;28;20313;-72
2021/03/19 08:55:43;;;;;;;0.20;0.20;;;;;;;;;;5078082;28;20230;-72
2021/03/19 08:58:28;;;;;;;0.20;0.20;;;;;;;;;;5078383;28;20207;-71
2021/03/19 09:00:56;;;;;;;0.20;0.20;;;;;;;;;;5075453;28;20195;-71
2021/03/19 09:03:42;;;;;;;0.20;0.20;;;;;;;;;;5061966;28;20263;-71
2021/03/19 09:06:09;;;;;;;0.20;0.20;;;;;;;;;;5087373;28;20195;-70
2021/03/19 09:08:50;;;;;;;0.20;0.20;;;;;;;;;;5080790;28;20206;-70
2021/03/19 09:11:18;;;;;;;0.20;0.20;;;;;;;;;;5079319;28;20476;-71
2021/03/19 09:14:12;;;;;;;0.20;0.20;;;;;;;;;;5083317;28;20219;-71
2021/03/19 09:16:43;;;;;;;0.10;0.10;;;;;;;;;;5078307;28;20199;-70
2021/03/19 09:19:28;;;;;;;0.20;0.20;;;;;;;;;;5086885;28;20199;-71
2021/03/19 09:21:54;;;;;;;0.20;0.20;;;;;;;;;;5088216;28;20242;-71
2021/03/19 09:24:22;;;;;;;0.20;0.20;;;;;;;;;;5081140;28;20207;-70
2021/03/19 09:26:52;;;;;;;0.30;0.30;;;;;;;;;;5063767;28;20234;-68
2021/03/19 09:29:26;;;;;;;0.20;0.20;;;;;;;;;;5080763;28;20203;-70
2021/03/19 09:31:54;;;;;;;0.20;0.20;;;;;;;;;;5079028;28;20203;-72
2021/03/19 09:34:45;;;;;;;0.77;0.77;;;;;;;;;;5085291;28;20257;-71
2021/03/19 09:37:13;;;;;;;0.20;0.20;;;;;;;;;;5082240;28;20210;-73
2021/03/19 09:39:57;;;;;;;0.20;0.20;;;;;;;;;;5067457;28;20271;-72
2021/03/19 09:42:56;;;;;;;0.20;0.20;;;;;;;;;;5055474;28;20283;-72
2021/03/19 09:45:46;;;;;;;0.30;0.30;;;;;;;;;;5070471;28;20201;-72
2021/03/19 09:48:27;;;;;;;0.40;0.40;;;;;;;;;;5078328;28;20204;-72
2021/03/19 09:50:57;;;;;;;0.20;0.20;;;;;;;;;;5078597;28;20237;-72
2021/03/19 09:53:26;;;;;;;0.20;0.20;;;;;;;;;;5081208;28;20320;-71
2021/03/19 09:55:54;;;;;;;0.20;0.20;;;;;;;;;;5073172;28;20201;-71
2021/03/19 09:58:22;;;;;;;0.13;0.13;;;;;;;;;;5074395;28;20200;-70
2021/03/19 10:00:52;;;;;;;0.10;0.10;;;;;;;;;;5084160;28;20205;-70
2021/03/19 10:03:18;;;;;;;0.20;0.20;;;;;;;;;;5072277;28;20265;-72
2021/03/19 10:05:46;;;;;;;0.10;0.10;;;;;;;;;;5057819;28;20403;-71
2021/03/19 10:08:25;;;;;;;0.20;0.20;;;;;;;;;;5063532;28;20464;-71
2021/03/19 10:10:51;;;;;;;0.20;0.20;;;;;;;;;;5098955;28;20205;-72
2021/03/19 10:13:20;;;;;;;0.20;0.20;;;;;;;;;;5077184;28;20283;-71
2021/03/19 10:15:47;;;;;;;0.20;0.20;;;;;;;;;;5075575;28;20200;-70
2021/03/19 10:18:24;;;;;;;0.10;0.10;;;;;;;;;;5080870;28;20222;-71
2021/03/19 10:20:53;;;;;;;0.20;0.20;;;;;;;;;;5070497;28;20214;-72
2021/03/19 10:23:27;;;;;;;0.10;0.10;;;;;;;;;;5076453;28;20236;-72
2021/03/19 10:26:03;;;;;;;0.10;0.10;;;;;;;;;;5081983;28;20220;-72
2021/03/19 10:28:30;;;;;;;0.20;0.20;;;;;;;;;;5083232;28;20547;-70
2021/03/19 10:30:58;;;;;;;0.20;0.20;;;;;;;;;;5064173;28;20207;-71
2021/03/19 10:33:30;;;;;;;0.10;0.10;;;;;;;;;;5098018;28;20220;-70
2021/03/19 10:35:58;;;;;;;0.20;0.20;;;;;;;;;;5076067;28;20240;-70
2021/03/19 10:38:29;;;;;;;0.10;0.10;;;;;;;;;;5067762;28;20244;-70
2021/03/19 10:40:59;;;;;;;0.10;0.10;;;;;;;;;;5088220;28;20513;-70
2021/03/19 10:43:28;;;;;;;0.10;0.10;;;;;;;;;;5079739;28;20223;-69
2021/03/19 10:45:57;;;;;;;0.10;0.10;;;;;;;;;;5084266;28;20201;-71
2021/03/19 10:48:27;;;;;;;0.10;0.10;;;;;;;;;;5080833;28;20271;-70
2021/03/19 10:51:00;;;;;;;0.10;0.10;;;;;;;;;;5085414;28;20201;-70
2021/03/19 10:53:33;;;;;;;0.10;0.10;;;;;;;;;;5073504;28;20225;-71
2021/03/19 10:56:01;;;;;;;0.10;0.10;;;;;;;;;;5085517;28;20287;-71
2021/03/19 10:58:33;;;;;;;0.10;0.10;;;;;;;;;;5054490;28;20225;-70
2021/03/19 11:01:00;;;;;;;0.10;0.10;;;;;;;;;;5077694;28;20350;-66
2021/03/19 11:03:34;;;;;;;0.10;0.10;;;;;;;;;;5057903;28;20484;-71
2021/03/19 11:06:03;;;;;;;0.10;0.10;;;;;;;;;;5081767;28;20200;-74
2021/03/19 11:08:29;;;;;;;0.10;0.10;;;;;;;;;;5080109;28;20241;-73
2021/03/19 11:10:56;;;;;;;0.10;0.10;;;;;;;;;;5070927;28;20203;-73
2021/03/19 11:13:27;;;;;;;0.10;0.10;;;;;;;;;;5080700;28;20219;-72
2021/03/19 11:15:54;;;;;;;0.10;0.10;;;;;;;;;;5080367;28;20199;-71
2021/03/19 11:18:22;;;;;;;0.10;0.10;;;;;;;;;;5062625;28;20396;-72
2021/03/19 11:20:50;;;;;;;0.10;0.10;;;;;;;;;;5079978;28;20197;-64
2021/03/19 11:23:25;;;;;;;0.10;0.10;;;;;;;;;;5079793;28;20247;-65
2021/03/19 11:25:52;;;;;;;0.10;0.10;;;;;;;;;;5083932;28;20252;-65
2021/03/19 11:28:36;;;;;;;0.10;0.10;;;;;;;;;;5066140;28;20202;-66
2021/03/19 11:31:13;;;;;;;0.10;0.10;;;;;;;;;;5076977;28;20198;-72
2021/03/19 11:33:54;;;;;;;0.10;0.10;;;;;;;;;;5078907;28;20490;-73
2021/03/19 11:36:20;;;;;;;0.10;0.10;;;;;;;;;;5080430;28;20204;-73
2021/03/19 11:38:48;;;;;;;0.10;0.10;;;;;;;;;;5062671;28;20485;-73
2021/03/19 11:41:21;;;;;;;0.10;0.10;;;;;;;;;;5062894;28;20202;-72
2021/03/19 11:43:47;;;;;;;0.10;0.10;;;;;;;;;;5061541;28;20559;-74
2021/03/19 11:46:14;;;;;;;0.10;0.10;;;;;;;;;;5063954;28;20201;-71
2021/03/19 11:48:41;;;;;;;0.10;0.10;;;;;;;;;;5056235;28;20259;-70
2021/03/19 11:51:09;;;;;;;0.10;0.10;;;;;;;;;;5060271;28;20495;-69
2021/03/19 11:53:36;;;;;;;0.10;0.10;;;;;;;;;;5076109;28;20222;-71
2021/03/19 11:56:04;;;;;;;0.10;0.10;;;;;;;;;;5067983;28;20210;-71
2021/03/19 11:58:31;;;;;;;0.10;0.10;;;;;;;;;;5083210;28;20203;-71
2021/03/19 12:00:57;;;;;;;0.10;0.10;;;;;;;;;;5083189;28;20225;-72
2021/03/19 12:03:26;;;;;;;0.10;0.10;;;;;;;;;;5085601;28;20202;-71
2021/03/19 12:05:53;;;;;;;0.10;0.10;;;;;;;;;;5079546;28;20218;-70
2021/03/19 12:08:19;;;;;;;0.10;0.10;;;;;;;;;;5066603;28;20204;-70
2021/03/19 12:10:46;;;;;;;0.10;0.10;;;;;;;;;;5066065;28;20200;-71
2021/03/19 12:13:14;;;;;;;0.10;0.10;;;;;;;;;;5081737;28;20202;-73
2021/03/19 12:15:40;;;;;;;0.10;0.10;;;;;;;;;;5081920;28;20279;-70
2021/03/19 12:18:07;;;;;;;0.10;0.10;;;;;;;;;;5086886;28;20210;-70
2021/03/19 12:20:34;;;;;;;0.10;0.10;;;;;;;;;;5078078;28;20220;-71
2021/03/19 12:23:00;;;;;;;0.10;0.10;;;;;;;;;;5070949;28;20207;-71
2021/03/19 12:25:27;;;;;;;0.10;0.10;;;;;;;;;;5083137;28;20204;-72
2021/03/19 12:27:53;;;;;;;0.10;0.10;;;;;;;;;;5086242;28;20202;-72
2021/03/19 12:30:22;;;;;;;0.10;0.10;;;;;;;;;;5066332;28;20301;-72
2021/03/19 12:32:48;;;;;;;0.10;0.10;;;;;;;;;;5082122;28;20201;-72
2021/03/19 12:35:15;;;;;;;0.10;0.10;;;;;;;;;;5078242;28;20225;-70
2021/03/19 12:37:42;;;;;;;0.10;0.10;;;;;;;;;;5062982;28;20226;-71
2021/03/19 12:40:09;;;;;;;0.10;0.10;;;;;;;;;;5080596;28;20198;-70
2021/03/19 12:42:36;;;;;;;0.10;0.10;;;;;;;;;;5057082;28;20269;-69
2021/03/19 12:45:02;;;;;;;0.10;0.10;;;;;;;;;;5068810;28;20452;-70
2021/03/19 12:47:30;;;;;;;0.20;0.20;;;;;;;;;;5063244;28;20199;-71
2021/03/19 12:49:56;;;;;;;0.10;0.10;;;;;;;;;;5058098;28;20580;-71
2021/03/19 12:52:23;;;;;;;0.10;0.10;;;;;;;;;;5041236;28;20205;-71
2021/03/19 12:54:50;;;;;;;0.10;0.10;;;;;;;;;;5075890;28;20226;-72
2021/03/19 12:57:17;;;;;;;0.10;0.10;;;;;;;;;;5059828;28;20199;-71
2021/03/19 12:59:43;;;;;;;0.10;0.10;;;;;;;;;;5064791;28;20525;-72
2021/03/19 13:02:10;;;;;;;0.20;0.20;;;;;;;;;;5065326;28;20210;-69
2021/03/19 13:04:37;;;;;;;0.20;0.20;;;;;;;;;;5057780;28;20513;-71
2021/03/19 13:07:07;;;;;;;0.10;0.10;;;;;;;;;;5061839;28;20199;-71
2021/03/19 13:09:33;;;;;;;0.17;0.17;;;;;;;;;;5083402;28;20202;-71
2021/03/19 13:11:59;;;;;;;0.10;0.10;;;;;;;;;;5061424;28;20206;-71
2021/03/19 13:14:26;;;;;;;0.10;0.10;;;;;;;;;;5082021;28;20219;-72
2021/03/19 13:16:53;;;;;;;0.10;0.10;;;;;;;;;;5080333;28;20198;-72
2021/03/19 13:19:22;;;;;;;0.10;0.10;;;;;;;;;;5062065;28;20209;-71
2021/03/19 13:21:49;;;;;;;0.10;0.10;;;;;;;;;;5081886;28;20209;-71
2021/03/19 13:24:15;;;;;;;0.20;0.20;;;;;;;;;;5061017;28;20208;-73
2021/03/19 13:26:42;;;;;;;0.10;0.10;;;;;;;;;;5059209;28;20233;-70
2021/03/19 13:29:08;;;;;;;0.10;0.10;;;;;;;;;;5083769;28;20236;-71
2021/03/19 13:31:34;;;;;;;0.20;0.20;;;;;;;;;;5080918;28;20202;-71
2021/03/19 13:34:02;;;;;;;0.20;0.20;;;;;;;;;;5078243;28;20296;-71
2021/03/19 13:36:28;;;;;;;0.10;0.10;;;;;;;;;;5077032;28;20202;-71
2021/03/19 13:38:55;;;;;;;0.20;0.20;;;;;;;;;;5071856;28;20205;-71
2021/03/19 13:41:22;;;;;;;0.10;0.10;;;;;;;;;;5063123;28;20265;-72
2021/03/19 13:43:49;;;;;;;0.20;0.20;;;;;;;;;;5061222;28;20209;-71
2021/03/19 13:46:17;;;;;;;0.20;0.20;;;;;;;;;;5081231;28;20202;-69
2021/03/19 13:48:43;;;;;;;0.10;0.10;;;;;;;;;;5082028;28;20285;-71
2021/03/19 13:51:11;;;;;;;0.20;0.20;;;;;;;;;;5059776;28;20209;-72
2021/03/19 13:53:37;;;;;;;0.10;0.10;;;;;;;;;;5062850;28;20228;-70
2021/03/19 13:56:05;;;;;;;0.20;0.20;;;;;;;;;;5082949;28;20375;-71
2021/03/19 13:58:32;;;;;;;0.20;0.20;;;;;;;;;;5085489;28;20206;-71
2021/03/19 14:01:00;;;;;;;0.20;0.20;;;;;;;;;;5063112;28;21421;-71
2021/03/19 14:03:26;;;;;;;0.10;0.10;;;;;;;;;;5054259;28;20207;-70
2021/03/19 14:05:53;;;;;;;0.10;0.10;;;;;;;;;;5062750;28;20375;-71
2021/03/19 14:08:20;;;;;;;0.13;0.13;;;;;;;;;;5079545;28;20199;-70
2021/03/19 14:10:46;;;;;;;0.10;0.10;;;;;;;;;;5070335;28;20204;-71
2021/03/19 14:13:14;;;;;;;0.10;0.10;;;;;;;;;;5057055;28;20212;-69
2021/03/19 14:15:40;;;;;;;0.20;0.20;;;;;;;;;;5079021;28;20273;-70
2021/03/19 14:18:06;;;;;;;0.20;0.20;;;;;;;;;;5081132;28;20211;-70
2021/03/19 14:20:33;;;;;;;0.10;0.10;;;;;;;;;;5080765;28;20365;-69
2021/03/19 14:23:00;;;;;;;0.20;0.20;;;;;;;;;;5079940;28;20252;-70
2021/03/19 14:25:27;;;;;;;0.20;0.20;;;;;;;;;;5059048;28;20206;-69
2021/03/19 14:27:54;;;;;;;0.20;0.20;;;;;;;;;;5074603;28;20203;-70
2021/03/19 14:30:25;;;;;;;0.20;0.20;;;;;;;;;;5082056;28;20504;-70
2021/03/19 14:32:52;;;;;;;0.20;0.20;;;;;;;;;;5081140;28;20208;-70
2021/03/19 14:35:18;;;;;;;0.20;0.20;;;;;;;;;;5060985;28;20230;-71
2021/03/19 14:37:45;;;;;;;0.20;0.20;;;;;;;;;;5060386;28;20200;-69
2021/03/19 14:40:13;;;;;;;0.20;0.20;;;;;;;;;;5081056;28;20197;-70
2021/03/19 14:42:40;;;;;;;0.20;0.20;;;;;;;;;;5081736;28;20195;-70
2021/03/19 14:45:07;;;;;;;0.20;0.20;;;;;;;;;;5084416;28;20210;-70
2021/03/19 14:47:34;;;;;;;0.20;0.20;;;;;;;;;;5064632;28;20219;-70
2021/03/19 14:50:01;;;;;;;0.20;0.20;;;;;;;;;;5075707;28;20532;-70
2021/03/19 14:52:27;;;;;;;0.17;0.17;;;;;;;;;;5060190;28;20196;-69
2021/03/19 14:54:53;;;;;;;0.20;0.20;;;;;;;;;;5084610;28;20239;-70
2021/03/19 14:57:19;;;;;;;0.10;0.10;;;;;;;;;;5064331;28;20410;-70
2021/03/19 14:59:47;;;;;;;0.17;0.17;;;;;;;;;;5053702;28;20415;-70